sensor_id;sensor_type;location;lat;lon;timestamp;P1;durP1;ratioP1;P2;durP2;ratioP2
31037;SDS011;17702;47.590;7.666;2024-01-11T00:01:39;82.85;;;36.40;;
31037;SDS011;17702;47.590;7.666;2024-01-11T00:04:04;79.78;;;36.58;;
31037;SDS011;17702;47.590;7.666;2024-01-11T00:06:30;81.25;;;37.50;;
31037;SDS011;17702;47.590;7.666;2024-01-11T00:08:56;80.63;;;35.83;;
31037;SDS011;17702;47.590;7.666;2024-01-11T00:11:21;83.40;;;36.10;;
31037;SDS011;17702;47.590;7.666;2024-01-11T00:13:47;79.18;;;36.70;;
31037;SDS011;17702;47.590;7.666;2024-01-11T00:16:12;77.82;;;36.53;;
31037;SDS011;17702;47.590;7.666;2024-01-11T00:18:38;80.60;;;35.70;;
31037;SDS011;17702;47.590;7.666;2024-01-11T00:21:04;78.53;;;36.67;;
31037;SDS011;17702;47.590;7.666;2024-01-11T00:23:29;80.25;;;35.70;;
31037;SDS011;17702;47.590;7.666;2024-01-11T00:25:55;78.90;;;35.65;;
31037;SDS011;17702;47.590;7.666;2024-01-11T00:28:21;81.20;;;36.60;;
31037;SDS011;17702;47.590;7.666;2024-01-11T00:30:46;83.35;;;37.67;;
31037;SDS011;17702;47.590;7.666;2024-01-11T00:33:12;83.90;;;36.42;;
31037;SDS011;17702;47.590;7.666;2024-01-11T00:35:37;79.82;;;37.83;;
31037;SDS011;17702;47.590;7.666;2024-01-11T00:38:03;74.22;;;35.53;;
31037;SDS011;17702;47.590;7.666;2024-01-11T00:40:28;78.38;;;35.03;;
31037;SDS011;17702;47.590;7.666;2024-01-11T00:42:54;83.30;;;38.08;;
31037;SDS011;17702;47.590;7.666;2024-01-11T00:45:19;76.68;;;36.63;;
31037;SDS011;17702;47.590;7.666;2024-01-11T00:47:45;78.88;;;37.13;;
31037;SDS011;17702;47.590;7.666;2024-01-11T00:50:10;85.82;;;36.35;;
31037;SDS011;17702;47.590;7.666;2024-01-11T00:52:36;74.30;;;35.60;;
31037;SDS011;17702;47.590;7.666;2024-01-11T00:55:03;74.90;;;35.28;;
31037;SDS011;17702;47.590;7.666;2024-01-11T00:57:29;71.43;;;35.85;;
31037;SDS011;17702;47.590;7.666;2024-01-11T00:59:54;74.88;;;35.45;;
31037;SDS011;17702;47.590;7.666;2024-01-11T01:02:20;85.00;;;36.35;;
31037;SDS011;17702;47.590;7.666;2024-01-11T01:04:46;73.68;;;34.90;;
31037;SDS011;17702;47.590;7.666;2024-01-11T01:07:11;75.03;;;35.97;;
31037;SDS011;17702;47.590;7.666;2024-01-11T01:09:38;74.05;;;35.22;;
31037;SDS011;17702;47.590;7.666;2024-01-11T01:12:03;86.70;;;37.72;;
31037;SDS011;17702;47.590;7.666;2024-01-11T01:14:29;79.80;;;36.20;;
31037;SDS011;17702;47.590;7.666;2024-01-11T01:16:55;82.78;;;36.22;;
31037;SDS011;17702;47.590;7.666;2024-01-11T01:19:21;78.72;;;36.35;;
31037;SDS011;17702;47.590;7.666;2024-01-11T01:21:47;77.22;;;36.78;;
31037;SDS011;17702;47.590;7.666;2024-01-11T01:24:12;83.15;;;37.25;;
31037;SDS011;17702;47.590;7.666;2024-01-11T01:26:38;72.00;;;34.55;;
31037;SDS011;17702;47.590;7.666;2024-01-11T01:29:03;76.30;;;35.28;;
31037;SDS011;17702;47.590;7.666;2024-01-11T01:31:29;72.53;;;35.33;;
31037;SDS011;17702;47.590;7.666;2024-01-11T01:33:54;73.07;;;34.65;;
31037;SDS011;17702;47.590;7.666;2024-01-11T01:36:20;73.25;;;34.75;;
31037;SDS011;17702;47.590;7.666;2024-01-11T01:38:45;73.40;;;35.33;;
31037;SDS011;17702;47.590;7.666;2024-01-11T01:41:11;81.38;;;35.35;;
31037;SDS011;17702;47.590;7.666;2024-01-11T01:43:37;79.90;;;35.03;;
31037;SDS011;17702;47.590;7.666;2024-01-11T01:46:03;80.57;;;36.88;;
31037;SDS011;17702;47.590;7.666;2024-01-11T01:48:30;75.80;;;34.42;;
31037;SDS011;17702;47.590;7.666;2024-01-11T01:50:56;74.20;;;34.90;;
31037;SDS011;17702;47.590;7.666;2024-01-11T01:53:22;77.32;;;36.03;;
31037;SDS011;17702;47.590;7.666;2024-01-11T01:55:49;78.38;;;34.92;;
31037;SDS011;17702;47.590;7.666;2024-01-11T01:58:17;78.70;;;35.08;;
31037;SDS011;17702;47.590;7.666;2024-01-11T02:00:44;71.07;;;34.00;;
31037;SDS011;17702;47.590;7.666;2024-01-11T02:03:10;73.55;;;35.58;;
31037;SDS011;17702;47.590;7.666;2024-01-11T02:05:37;74.05;;;35.47;;
31037;SDS011;17702;47.590;7.666;2024-01-11T02:08:03;78.38;;;35.83;;
31037;SDS011;17702;47.590;7.666;2024-01-11T02:10:34;83.45;;;39.35;;
31037;SDS011;17702;47.590;7.666;2024-01-11T02:13:04;74.35;;;34.65;;
31037;SDS011;17702;47.590;7.666;2024-01-11T02:15:30;81.63;;;39.35;;
31037;SDS011;17702;47.590;7.666;2024-01-11T02:17:55;80.15;;;34.88;;
31037;SDS011;17702;47.590;7.666;2024-01-11T02:20:21;74.35;;;35.60;;
31037;SDS011;17702;47.590;7.666;2024-01-11T02:22:47;76.35;;;34.08;;
31037;SDS011;17702;47.590;7.666;2024-01-11T02:27:49;79.18;;;35.03;;
31037;SDS011;17702;47.590;7.666;2024-01-11T02:30:15;78.28;;;35.47;;
31037;SDS011;17702;47.590;7.666;2024-01-11T02:32:45;82.78;;;34.90;;
31037;SDS011;17702;47.590;7.666;2024-01-11T02:35:13;59.30;;;27.48;;
31037;SDS011;17702;47.590;7.666;2024-01-11T02:37:40;76.65;;;36.03;;
31037;SDS011;17702;47.590;7.666;2024-01-11T02:40:08;71.00;;;34.58;;
31037;SDS011;17702;47.590;7.666;2024-01-11T02:42:35;75.95;;;35.67;;
31037;SDS011;17702;47.590;7.666;2024-01-11T02:45:02;72.15;;;35.25;;
31037;SDS011;17702;47.590;7.666;2024-01-11T02:47:29;81.07;;;35.95;;
31037;SDS011;17702;47.590;7.666;2024-01-11T02:49:55;79.47;;;37.33;;
31037;SDS011;17702;47.590;7.666;2024-01-11T02:52:22;77.47;;;34.47;;
31037;SDS011;17702;47.590;7.666;2024-01-11T02:54:48;76.38;;;35.10;;
31037;SDS011;17702;47.590;7.666;2024-01-11T02:57:13;80.88;;;36.28;;
31037;SDS011;17702;47.590;7.666;2024-01-11T02:59:39;80.70;;;36.67;;
31037;SDS011;17702;47.590;7.666;2024-01-11T03:02:05;79.38;;;36.20;;
31037;SDS011;17702;47.590;7.666;2024-01-11T03:04:31;77.20;;;36.20;;
31037;SDS011;17702;47.590;7.666;2024-01-11T03:06:57;85.80;;;36.08;;
31037;SDS011;17702;47.590;7.666;2024-01-11T03:09:22;78.45;;;35.80;;
31037;SDS011;17702;47.590;7.666;2024-01-11T03:11:48;78.90;;;36.67;;
31037;SDS011;17702;47.590;7.666;2024-01-11T03:14:13;85.20;;;37.50;;
31037;SDS011;17702;47.590;7.666;2024-01-11T03:16:39;76.05;;;35.78;;
31037;SDS011;17702;47.590;7.666;2024-01-11T03:19:05;82.13;;;35.47;;
31037;SDS011;17702;47.590;7.666;2024-01-11T03:21:31;81.18;;;37.15;;
31037;SDS011;17702;47.590;7.666;2024-01-11T03:23:56;81.80;;;36.35;;
31037;SDS011;17702;47.590;7.666;2024-01-11T03:26:22;76.05;;;35.97;;
31037;SDS011;17702;47.590;7.666;2024-01-11T03:28:48;76.78;;;37.53;;
31037;SDS011;17702;47.590;7.666;2024-01-11T03:31:14;83.82;;;36.25;;
31037;SDS011;17702;47.590;7.666;2024-01-11T03:33:39;75.68;;;35.85;;
31037;SDS011;17702;47.590;7.666;2024-01-11T03:36:08;79.82;;;36.65;;
31037;SDS011;17702;47.590;7.666;2024-01-11T03:38:34;76.13;;;36.03;;
31037;SDS011;17702;47.590;7.666;2024-01-11T03:41:00;80.32;;;36.70;;
31037;SDS011;17702;47.590;7.666;2024-01-11T03:43:26;76.13;;;36.95;;
31037;SDS011;17702;47.590;7.666;2024-01-11T03:45:52;77.90;;;35.78;;
31037;SDS011;17702;47.590;7.666;2024-01-11T03:48:18;74.53;;;35.45;;
31037;SDS011;17702;47.590;7.666;2024-01-11T03:50:43;78.53;;;35.47;;
31037;SDS011;17702;47.590;7.666;2024-01-11T03:53:09;76.55;;;36.70;;
31037;SDS011;17702;47.590;7.666;2024-01-11T03:55:35;79.30;;;35.58;;
31037;SDS011;17702;47.590;7.666;2024-01-11T03:58:01;88.47;;;39.38;;
31037;SDS011;17702;47.590;7.666;2024-01-11T04:00:26;89.13;;;38.65;;
31037;SDS011;17702;47.590;7.666;2024-01-11T04:02:52;88.35;;;38.55;;
31037;SDS011;17702;47.590;7.666;2024-01-11T04:05:17;83.85;;;36.97;;
31037;SDS011;17702;47.590;7.666;2024-01-11T04:07:43;96.43;;;39.05;;
31037;SDS011;17702;47.590;7.666;2024-01-11T04:10:09;92.57;;;36.95;;
31037;SDS011;17702;47.590;7.666;2024-01-11T04:12:35;93.65;;;37.67;;
31037;SDS011;17702;47.590;7.666;2024-01-11T04:15:02;93.55;;;39.85;;
31037;SDS011;17702;47.590;7.666;2024-01-11T04:17:28;88.40;;;37.80;;
31037;SDS011;17702;47.590;7.666;2024-01-11T04:19:53;97.00;;;38.08;;
31037;SDS011;17702;47.590;7.666;2024-01-11T04:22:19;96.25;;;40.92;;
31037;SDS011;17702;47.590;7.666;2024-01-11T04:24:44;96.53;;;39.67;;
31037;SDS011;17702;47.590;7.666;2024-01-11T04:27:10;93.60;;;38.67;;
31037;SDS011;17702;47.590;7.666;2024-01-11T04:29:35;86.63;;;37.65;;
31037;SDS011;17702;47.590;7.666;2024-01-11T04:32:01;94.95;;;37.67;;
31037;SDS011;17702;47.590;7.666;2024-01-11T04:34:27;86.30;;;36.70;;
31037;SDS011;17702;47.590;7.666;2024-01-11T04:36:52;85.53;;;37.53;;
31037;SDS011;17702;47.590;7.666;2024-01-11T04:39:18;78.18;;;36.55;;
31037;SDS011;17702;47.590;7.666;2024-01-11T04:41:43;80.38;;;36.88;;
31037;SDS011;17702;47.590;7.666;2024-01-11T04:44:10;88.95;;;39.20;;
31037;SDS011;17702;47.590;7.666;2024-01-11T04:46:35;87.82;;;38.40;;
31037;SDS011;17702;47.590;7.666;2024-01-11T04:49:01;99.68;;;39.15;;
31037;SDS011;17702;47.590;7.666;2024-01-11T04:51:26;92.43;;;39.47;;
31037;SDS011;17702;47.590;7.666;2024-01-11T04:53:52;88.70;;;37.58;;
31037;SDS011;17702;47.590;7.666;2024-01-11T04:56:17;89.70;;;39.33;;
31037;SDS011;17702;47.590;7.666;2024-01-11T04:58:44;81.35;;;37.22;;
31037;SDS011;17702;47.590;7.666;2024-01-11T05:03:39;84.75;;;37.25;;
31037;SDS011;17702;47.590;7.666;2024-01-11T05:06:04;82.72;;;36.33;;
31037;SDS011;17702;47.590;7.666;2024-01-11T05:08:30;93.20;;;37.95;;
31037;SDS011;17702;47.590;7.666;2024-01-11T05:10:56;89.50;;;36.63;;
31037;SDS011;17702;47.590;7.666;2024-01-11T05:13:21;86.70;;;38.63;;
31037;SDS011;17702;47.590;7.666;2024-01-11T05:15:47;88.05;;;37.53;;
31037;SDS011;17702;47.590;7.666;2024-01-11T05:18:13;86.68;;;37.30;;
31037;SDS011;17702;47.590;7.666;2024-01-11T05:20:39;89.00;;;39.28;;
31037;SDS011;17702;47.590;7.666;2024-01-11T05:23:04;88.22;;;37.20;;
31037;SDS011;17702;47.590;7.666;2024-01-11T05:25:30;89.50;;;37.15;;
31037;SDS011;17702;47.590;7.666;2024-01-11T05:27:58;86.18;;;38.30;;
31037;SDS011;17702;47.590;7.666;2024-01-11T05:30:24;89.05;;;38.83;;
31037;SDS011;17702;47.590;7.666;2024-01-11T05:32:50;98.70;;;38.08;;
31037;SDS011;17702;47.590;7.666;2024-01-11T05:35:15;81.75;;;36.28;;
31037;SDS011;17702;47.590;7.666;2024-01-11T05:37:41;89.45;;;38.80;;
31037;SDS011;17702;47.590;7.666;2024-01-11T05:40:07;84.70;;;36.63;;
31037;SDS011;17702;47.590;7.666;2024-01-11T05:42:33;82.70;;;36.60;;
31037;SDS011;17702;47.590;7.666;2024-01-11T05:44:58;87.72;;;36.80;;
31037;SDS011;17702;47.590;7.666;2024-01-11T05:47:24;90.38;;;38.05;;
31037;SDS011;17702;47.590;7.666;2024-01-11T05:49:50;94.13;;;38.85;;
31037;SDS011;17702;47.590;7.666;2024-01-11T05:52:16;95.85;;;38.92;;
31037;SDS011;17702;47.590;7.666;2024-01-11T05:54:41;98.10;;;39.42;;
31037;SDS011;17702;47.590;7.666;2024-01-11T05:57:07;104.10;;;40.45;;
31037;SDS011;17702;47.590;7.666;2024-01-11T05:59:32;108.10;;;40.38;;
31037;SDS011;17702;47.590;7.666;2024-01-11T06:01:58;95.72;;;39.38;;
31037;SDS011;17702;47.590;7.666;2024-01-11T06:04:25;115.00;;;42.88;;
31037;SDS011;17702;47.590;7.666;2024-01-11T06:06:51;118.65;;;43.65;;
31037;SDS011;17702;47.590;7.666;2024-01-11T06:09:17;120.05;;;43.03;;
31037;SDS011;17702;47.590;7.666;2024-01-11T06:11:42;109.50;;;41.88;;
31037;SDS011;17702;47.590;7.666;2024-01-11T06:14:08;122.32;;;42.05;;
31037;SDS011;17702;47.590;7.666;2024-01-11T06:16:34;114.07;;;43.30;;
31037;SDS011;17702;47.590;7.666;2024-01-11T06:19:00;115.55;;;41.70;;
31037;SDS011;17702;47.590;7.666;2024-01-11T06:21:25;115.38;;;42.25;;
31037;SDS011;17702;47.590;7.666;2024-01-11T06:23:51;109.53;;;41.63;;
31037;SDS011;17702;47.590;7.666;2024-01-11T06:26:16;113.93;;;41.50;;
31037;SDS011;17702;47.590;7.666;2024-01-11T06:28:42;114.47;;;42.65;;
31037;SDS011;17702;47.590;7.666;2024-01-11T06:31:09;130.20;;;41.80;;
31037;SDS011;17702;47.590;7.666;2024-01-11T06:33:35;120.03;;;42.58;;
31037;SDS011;17702;47.590;7.666;2024-01-11T06:36:02;113.75;;;42.65;;
31037;SDS011;17702;47.590;7.666;2024-01-11T06:38:31;116.32;;;41.75;;
31037;SDS011;17702;47.590;7.666;2024-01-11T06:40:56;121.82;;;44.45;;
31037;SDS011;17702;47.590;7.666;2024-01-11T06:43:22;129.73;;;45.95;;
31037;SDS011;17702;47.590;7.666;2024-01-11T06:45:48;119.53;;;45.17;;
31037;SDS011;17702;47.590;7.666;2024-01-11T06:48:13;128.27;;;45.28;;
31037;SDS011;17702;47.590;7.666;2024-01-11T06:50:39;133.70;;;46.67;;
31037;SDS011;17702;47.590;7.666;2024-01-11T06:53:04;118.38;;;44.38;;
31037;SDS011;17702;47.590;7.666;2024-01-11T06:55:30;114.93;;;41.53;;
31037;SDS011;17702;47.590;7.666;2024-01-11T06:57:56;111.45;;;44.25;;
31037;SDS011;17702;47.590;7.666;2024-01-11T07:00:22;108.22;;;41.30;;
31037;SDS011;17702;47.590;7.666;2024-01-11T07:02:48;100.43;;;40.35;;
31037;SDS011;17702;47.590;7.666;2024-01-11T07:05:13;114.82;;;43.00;;
31037;SDS011;17702;47.590;7.666;2024-01-11T07:07:39;110.95;;;43.20;;
31037;SDS011;17702;47.590;7.666;2024-01-11T07:10:05;109.25;;;40.38;;
31037;SDS011;17702;47.590;7.666;2024-01-11T07:12:31;94.85;;;39.15;;
31037;SDS011;17702;47.590;7.666;2024-01-11T07:14:57;94.75;;;37.42;;
31037;SDS011;17702;47.590;7.666;2024-01-11T07:17:23;95.95;;;39.08;;
31037;SDS011;17702;47.590;7.666;2024-01-11T07:19:50;90.88;;;38.58;;
31037;SDS011;17702;47.590;7.666;2024-01-11T07:22:15;93.93;;;38.50;;
31037;SDS011;17702;47.590;7.666;2024-01-11T07:24:41;82.65;;;37.67;;
31037;SDS011;17702;47.590;7.666;2024-01-11T07:27:07;87.55;;;36.58;;
31037;SDS011;17702;47.590;7.666;2024-01-11T07:29:33;93.00;;;37.15;;
31037;SDS011;17702;47.590;7.666;2024-01-11T07:31:59;94.93;;;38.13;;
31037;SDS011;17702;47.590;7.666;2024-01-11T07:34:25;89.40;;;37.70;;
31037;SDS011;17702;47.590;7.666;2024-01-11T07:36:52;96.22;;;37.90;;
31037;SDS011;17702;47.590;7.666;2024-01-11T07:39:17;92.00;;;38.42;;
31037;SDS011;17702;47.590;7.666;2024-01-11T07:41:43;95.72;;;39.00;;
31037;SDS011;17702;47.590;7.666;2024-01-11T07:44:09;88.82;;;36.95;;
31037;SDS011;17702;47.590;7.666;2024-01-11T07:46:34;83.93;;;35.38;;
31037;SDS011;17702;47.590;7.666;2024-01-11T07:49:01;89.82;;;36.78;;
31037;SDS011;17702;47.590;7.666;2024-01-11T07:51:27;96.97;;;38.00;;
31037;SDS011;17702;47.590;7.666;2024-01-11T07:53:53;96.13;;;37.88;;
31037;SDS011;17702;47.590;7.666;2024-01-11T07:56:18;96.85;;;37.83;;
31037;SDS011;17702;47.590;7.666;2024-01-11T07:58:44;99.65;;;37.40;;
31037;SDS011;17702;47.590;7.666;2024-01-11T08:01:10;92.40;;;37.63;;
31037;SDS011;17702;47.590;7.666;2024-01-11T08:03:35;97.78;;;38.30;;
31037;SDS011;17702;47.590;7.666;2024-01-11T08:06:01;102.47;;;37.90;;
31037;SDS011;17702;47.590;7.666;2024-01-11T08:08:26;99.13;;;38.08;;
31037;SDS011;17702;47.590;7.666;2024-01-11T08:10:52;87.15;;;36.50;;
31037;SDS011;17702;47.590;7.666;2024-01-11T08:13:18;97.50;;;36.83;;
31037;SDS011;17702;47.590;7.666;2024-01-11T08:15:46;106.45;;;40.08;;
31037;SDS011;17702;47.590;7.666;2024-01-11T08:18:12;97.85;;;37.72;;
31037;SDS011;17702;47.590;7.666;2024-01-11T08:20:39;100.10;;;37.90;;
31037;SDS011;17702;47.590;7.666;2024-01-11T08:23:04;100.80;;;39.58;;
31037;SDS011;17702;47.590;7.666;2024-01-11T08:25:30;105.22;;;39.15;;
31037;SDS011;17702;47.590;7.666;2024-01-11T08:27:55;99.57;;;40.33;;
31037;SDS011;17702;47.590;7.666;2024-01-11T08:30:21;108.13;;;39.20;;
31037;SDS011;17702;47.590;7.666;2024-01-11T08:32:47;110.75;;;40.35;;
31037;SDS011;17702;47.590;7.666;2024-01-11T08:35:13;108.80;;;39.00;;
31037;SDS011;17702;47.590;7.666;2024-01-11T08:37:39;93.82;;;37.95;;
31037;SDS011;17702;47.590;7.666;2024-01-11T08:40:05;100.72;;;38.70;;
31037;SDS011;17702;47.590;7.666;2024-01-11T08:42:32;102.50;;;40.97;;
31037;SDS011;17702;47.590;7.666;2024-01-11T08:44:57;104.38;;;39.50;;
31037;SDS011;17702;47.590;7.666;2024-01-11T08:47:23;102.30;;;39.20;;
31037;SDS011;17702;47.590;7.666;2024-01-11T08:49:49;103.55;;;39.50;;
31037;SDS011;17702;47.590;7.666;2024-01-11T08:52:15;92.55;;;36.58;;
31037;SDS011;17702;47.590;7.666;2024-01-11T08:54:40;89.53;;;38.63;;
31037;SDS011;17702;47.590;7.666;2024-01-11T08:57:06;94.35;;;40.10;;
31037;SDS011;17702;47.590;7.666;2024-01-11T08:59:31;93.43;;;38.75;;
31037;SDS011;17702;47.590;7.666;2024-01-11T09:01:57;103.15;;;39.00;;
31037;SDS011;17702;47.590;7.666;2024-01-11T09:04:23;94.97;;;38.10;;
31037;SDS011;17702;47.590;7.666;2024-01-11T09:06:49;95.75;;;38.40;;
31037;SDS011;17702;47.590;7.666;2024-01-11T09:09:14;103.78;;;38.97;;
31037;SDS011;17702;47.590;7.666;2024-01-11T09:11:42;97.82;;;38.88;;
31037;SDS011;17702;47.590;7.666;2024-01-11T09:14:07;91.13;;;39.95;;
31037;SDS011;17702;47.590;7.666;2024-01-11T09:16:36;101.80;;;40.17;;
31037;SDS011;17702;47.590;7.666;2024-01-11T09:19:01;103.72;;;40.10;;
31037;SDS011;17702;47.590;7.666;2024-01-11T09:21:27;95.68;;;40.00;;
31037;SDS011;17702;47.590;7.666;2024-01-11T09:23:53;103.03;;;40.45;;
31037;SDS011;17702;47.590;7.666;2024-01-11T09:26:19;100.40;;;39.97;;
31037;SDS011;17702;47.590;7.666;2024-01-11T09:28:44;107.18;;;39.50;;
31037;SDS011;17702;47.590;7.666;2024-01-11T09:31:10;95.13;;;39.10;;
31037;SDS011;17702;47.590;7.666;2024-01-11T09:33:36;107.28;;;42.13;;
31037;SDS011;17702;47.590;7.666;2024-01-11T09:36:02;104.38;;;42.15;;
31037;SDS011;17702;47.590;7.666;2024-01-11T09:38:28;109.47;;;40.65;;
31037;SDS011;17702;47.590;7.666;2024-01-11T09:41:05;95.22;;;40.28;;
31037;SDS011;17702;47.590;7.666;2024-01-11T09:43:35;94.93;;;39.35;;
31037;SDS011;17702;47.590;7.666;2024-01-11T09:46:04;99.65;;;40.22;;
31037;SDS011;17702;47.590;7.666;2024-01-11T09:48:32;99.68;;;39.33;;
31037;SDS011;17702;47.590;7.666;2024-01-11T09:50:59;103.68;;;40.33;;
31037;SDS011;17702;47.590;7.666;2024-01-11T09:53:33;106.70;;;42.50;;
31037;SDS011;17702;47.590;7.666;2024-01-11T09:55:59;110.63;;;42.33;;
31037;SDS011;17702;47.590;7.666;2024-01-11T09:58:25;114.50;;;42.50;;
31037;SDS011;17702;47.590;7.666;2024-01-11T10:00:54;110.60;;;44.35;;
31037;SDS011;17702;47.590;7.666;2024-01-11T10:03:24;113.28;;;43.78;;
31037;SDS011;17702;47.590;7.666;2024-01-11T10:05:51;114.78;;;43.92;;
31037;SDS011;17702;47.590;7.666;2024-01-11T10:08:22;111.90;;;44.13;;
31037;SDS011;17702;47.590;7.666;2024-01-11T10:10:48;105.85;;;44.75;;
31037;SDS011;17702;47.590;7.666;2024-01-11T10:13:14;105.20;;;43.00;;
31037;SDS011;17702;47.590;7.666;2024-01-11T10:15:41;117.53;;;44.03;;
31037;SDS011;17702;47.590;7.666;2024-01-11T10:18:07;116.97;;;44.80;;
31037;SDS011;17702;47.590;7.666;2024-01-11T10:20:32;105.93;;;41.38;;
31037;SDS011;17702;47.590;7.666;2024-01-11T10:22:58;108.53;;;44.25;;
31037;SDS011;17702;47.590;7.666;2024-01-11T10:25:24;105.75;;;42.72;;
31037;SDS011;17702;47.590;7.666;2024-01-11T10:27:50;108.38;;;44.95;;
31037;SDS011;17702;47.590;7.666;2024-01-11T10:30:16;113.60;;;45.17;;
31037;SDS011;17702;47.590;7.666;2024-01-11T10:32:43;103.03;;;43.42;;
31037;SDS011;17702;47.590;7.666;2024-01-11T10:35:09;108.22;;;44.00;;
31037;SDS011;17702;47.590;7.666;2024-01-11T10:37:34;103.72;;;42.53;;
31037;SDS011;17702;47.590;7.666;2024-01-11T10:40:03;110.63;;;44.38;;
31037;SDS011;17702;47.590;7.666;2024-01-11T10:42:34;112.00;;;44.22;;
31037;SDS011;17702;47.590;7.666;2024-01-11T10:45:02;100.75;;;42.95;;
31037;SDS011;17702;47.590;7.666;2024-01-11T10:47:31;106.97;;;42.97;;
31037;SDS011;17702;47.590;7.666;2024-01-11T10:49:58;101.05;;;43.72;;
31037;SDS011;17702;47.590;7.666;2024-01-11T10:52:27;108.70;;;45.33;;
31037;SDS011;17702;47.590;7.666;2024-01-11T10:54:58;108.85;;;46.00;;
31037;SDS011;17702;47.590;7.666;2024-01-11T10:57:25;104.07;;;43.63;;
31037;SDS011;17702;47.590;7.666;2024-01-11T10:59:52;109.28;;;44.80;;
31037;SDS011;17702;47.590;7.666;2024-01-11T11:02:19;105.18;;;43.20;;
31037;SDS011;17702;47.590;7.666;2024-01-11T11:04:46;103.65;;;43.92;;
31037;SDS011;17702;47.590;7.666;2024-01-11T11:07:14;106.43;;;43.03;;
31037;SDS011;17702;47.590;7.666;2024-01-11T11:09:41;109.68;;;44.97;;
31037;SDS011;17702;47.590;7.666;2024-01-11T11:12:09;103.07;;;43.40;;
31037;SDS011;17702;47.590;7.666;2024-01-11T11:14:36;107.32;;;44.40;;
31037;SDS011;17702;47.590;7.666;2024-01-11T11:17:03;109.68;;;44.63;;
31037;SDS011;17702;47.590;7.666;2024-01-11T11:19:30;105.28;;;43.67;;
31037;SDS011;17702;47.590;7.666;2024-01-11T11:21:56;111.93;;;44.15;;
31037;SDS011;17702;47.590;7.666;2024-01-11T11:24:21;105.85;;;44.45;;
31037;SDS011;17702;47.590;7.666;2024-01-11T11:26:47;105.38;;;44.60;;
31037;SDS011;17702;47.590;7.666;2024-01-11T11:29:12;103.63;;;43.53;;
31037;SDS011;17702;47.590;7.666;2024-01-11T11:31:44;109.97;;;44.00;;
31037;SDS011;17702;47.590;7.666;2024-01-11T11:34:19;105.05;;;42.17;;
31037;SDS011;17702;47.590;7.666;2024-01-11T11:36:48;101.53;;;42.53;;
31037;SDS011;17702;47.590;7.666;2024-01-11T11:39:19;103.95;;;46.63;;
31037;SDS011;17702;47.590;7.666;2024-01-11T11:41:45;104.22;;;44.42;;
31037;SDS011;17702;47.590;7.666;2024-01-11T11:44:12;99.50;;;40.70;;
31037;SDS011;17702;47.590;7.666;2024-01-11T11:46:41;92.93;;;39.45;;
31037;SDS011;17702;47.590;7.666;2024-01-11T11:49:06;94.38;;;41.45;;
31037;SDS011;17702;47.590;7.666;2024-01-11T11:51:32;102.15;;;42.58;;
31037;SDS011;17702;47.590;7.666;2024-01-11T11:53:58;97.93;;;40.83;;
31037;SDS011;17702;47.590;7.666;2024-01-11T11:56:23;93.75;;;41.97;;
31037;SDS011;17702;47.590;7.666;2024-01-11T11:58:49;97.30;;;41.22;;
31037;SDS011;17702;47.590;7.666;2024-01-11T12:01:17;91.82;;;39.97;;
31037;SDS011;17702;47.590;7.666;2024-01-11T12:03:44;97.10;;;40.47;;
31037;SDS011;17702;47.590;7.666;2024-01-11T12:06:14;96.20;;;40.60;;
31037;SDS011;17702;47.590;7.666;2024-01-11T12:08:41;93.65;;;40.00;;
31037;SDS011;17702;47.590;7.666;2024-01-11T12:11:08;100.07;;;42.50;;
31037;SDS011;17702;47.590;7.666;2024-01-11T12:13:34;85.85;;;40.88;;
31037;SDS011;17702;47.590;7.666;2024-01-11T12:16:01;97.03;;;39.88;;
31037;SDS011;17702;47.590;7.666;2024-01-11T12:18:26;87.82;;;40.45;;
31037;SDS011;17702;47.590;7.666;2024-01-11T12:20:52;91.85;;;41.50;;
31037;SDS011;17702;47.590;7.666;2024-01-11T12:23:20;96.03;;;43.97;;
31037;SDS011;17702;47.590;7.666;2024-01-11T12:25:46;98.40;;;41.53;;
31037;SDS011;17702;47.590;7.666;2024-01-11T12:28:12;96.85;;;41.67;;
31037;SDS011;17702;47.590;7.666;2024-01-11T12:30:38;89.15;;;39.90;;
31037;SDS011;17702;47.590;7.666;2024-01-11T12:33:04;100.45;;;42.80;;
31037;SDS011;17702;47.590;7.666;2024-01-11T12:35:30;92.70;;;41.05;;
31037;SDS011;17702;47.590;7.666;2024-01-11T12:38:00;97.28;;;41.13;;
31037;SDS011;17702;47.590;7.666;2024-01-11T12:40:26;103.68;;;43.13;;
31037;SDS011;17702;47.590;7.666;2024-01-11T12:42:53;100.28;;;41.17;;
31037;SDS011;17702;47.590;7.666;2024-01-11T12:45:22;101.55;;;43.22;;
31037;SDS011;17702;47.590;7.666;2024-01-11T12:47:47;100.30;;;43.58;;
31037;SDS011;17702;47.590;7.666;2024-01-11T12:50:13;104.13;;;44.70;;
31037;SDS011;17702;47.590;7.666;2024-01-11T12:52:39;105.85;;;43.55;;
31037;SDS011;17702;47.590;7.666;2024-01-11T12:55:07;97.85;;;43.40;;
31037;SDS011;17702;47.590;7.666;2024-01-11T12:57:33;103.43;;;45.10;;
31037;SDS011;17702;47.590;7.666;2024-01-11T13:00:12;99.82;;;41.78;;
31037;SDS011;17702;47.590;7.666;2024-01-11T13:02:39;100.13;;;44.42;;
31037;SDS011;17702;47.590;7.666;2024-01-11T13:05:05;96.53;;;41.92;;
31037;SDS011;17702;47.590;7.666;2024-01-11T13:07:32;99.22;;;41.88;;
31037;SDS011;17702;47.590;7.666;2024-01-11T13:09:58;104.82;;;43.03;;
31037;SDS011;17702;47.590;7.666;2024-01-11T13:12:24;97.80;;;42.42;;
31037;SDS011;17702;47.590;7.666;2024-01-11T13:14:50;100.28;;;43.30;;
31037;SDS011;17702;47.590;7.666;2024-01-11T13:17:17;98.07;;;43.45;;
31037;SDS011;17702;47.590;7.666;2024-01-11T13:19:43;94.57;;;41.75;;
31037;SDS011;17702;47.590;7.666;2024-01-11T13:22:09;95.93;;;42.58;;
31037;SDS011;17702;47.590;7.666;2024-01-11T13:24:35;105.85;;;44.97;;
31037;SDS011;17702;47.590;7.666;2024-01-11T13:27:01;104.22;;;44.38;;
31037;SDS011;17702;47.590;7.666;2024-01-11T13:29:26;102.15;;;44.25;;
31037;SDS011;17702;47.590;7.666;2024-01-11T13:31:52;107.35;;;42.80;;
31037;SDS011;17702;47.590;7.666;2024-01-11T13:34:18;113.78;;;45.15;;
31037;SDS011;17702;47.590;7.666;2024-01-11T13:36:44;106.40;;;44.33;;
31037;SDS011;17702;47.590;7.666;2024-01-11T13:39:10;99.47;;;43.50;;
31037;SDS011;17702;47.590;7.666;2024-01-11T13:41:35;98.63;;;43.55;;
31037;SDS011;17702;47.590;7.666;2024-01-11T13:44:01;99.90;;;42.20;;
31037;SDS011;17702;47.590;7.666;2024-01-11T13:46:27;90.18;;;38.63;;
31037;SDS011;17702;47.590;7.666;2024-01-11T13:48:52;92.32;;;38.33;;
31037;SDS011;17702;47.590;7.666;2024-01-11T13:51:18;89.47;;;38.08;;
31037;SDS011;17702;47.590;7.666;2024-01-11T13:53:44;81.57;;;37.55;;
31037;SDS011;17702;47.590;7.666;2024-01-11T13:56:09;86.18;;;37.97;;
31037;SDS011;17702;47.590;7.666;2024-01-11T13:58:35;87.68;;;37.40;;
31037;SDS011;17702;47.590;7.666;2024-01-11T14:01:01;85.70;;;37.05;;
31037;SDS011;17702;47.590;7.666;2024-01-11T14:03:27;90.50;;;38.50;;
31037;SDS011;17702;47.590;7.666;2024-01-11T14:05:53;90.82;;;39.45;;
31037;SDS011;17702;47.590;7.666;2024-01-11T14:08:18;80.78;;;36.60;;
31037;SDS011;17702;47.590;7.666;2024-01-11T14:10:44;86.95;;;39.38;;
31037;SDS011;17702;47.590;7.666;2024-01-11T14:13:10;86.32;;;37.50;;
31037;SDS011;17702;47.590;7.666;2024-01-11T14:15:35;81.30;;;36.55;;